createdAt,value
2022-12-18T00:00:59.273Z,0.91
2022-12-18T00:04:26.177Z,0.81
2022-12-18T00:07:47.778Z,0.76
2022-12-18T00:11:14.332Z,0.73
2022-12-18T00:14:38.299Z,0.72
2022-12-18T00:18:03.701Z,0.77
2022-12-18T00:21:28.840Z,0.76
2022-12-18T00:24:50.386Z,0.74
2022-12-18T00:28:11.962Z,0.87
2022-12-18T00:31:34.320Z,0.80
2022-12-18T00:34:55.919Z,0.56
2022-12-18T00:38:17.474Z,0.16
2022-12-18T00:41:59.914Z,0.22
2022-12-18T00:45:21.426Z,0.36
2022-12-18T00:48:43.473Z,0.48
2022-12-18T00:52:07.448Z,0.53
2022-12-18T00:55:29.025Z,0.60
2022-12-18T00:58:50.974Z,0.69
2022-12-18T01:02:14.944Z,0.53
2022-12-18T01:05:41.170Z,0.36
2022-12-18T01:09:05.376Z,0.36
2022-12-18T01:12:27.089Z,0.32
2022-12-18T01:15:52.366Z,0.24
2022-12-18T01:19:16.277Z,0.30
2022-12-18T01:22:40.644Z,0.49
2022-12-18T01:26:14.421Z,0.15
2022-12-18T01:29:36.055Z,0.50
2022-12-18T01:32:57.659Z,0.45
2022-12-18T01:36:25.316Z,0.59
2022-12-18T01:39:46.877Z,0.39
2022-12-18T01:43:10.299Z,0.53
2022-12-18T01:46:31.835Z,0.42
2022-12-18T01:49:55.638Z,0.24
2022-12-18T01:53:21.892Z,0.32
2022-12-18T01:56:43.567Z,0.25
2022-12-18T02:00:12.189Z,0.50
2022-12-18T02:03:33.931Z,0.54
2022-12-18T02:07:15.740Z,0.59
2022-12-18T02:10:48.621Z,0.46
2022-12-18T02:14:13.027Z,0.69
2022-12-18T02:17:41.297Z,0.64
2022-12-18T02:21:13.808Z,0.50
2022-12-18T02:24:52.341Z,0.54
2022-12-18T02:28:17.207Z,0.53
2022-12-18T02:31:48.072Z,0.54
2022-12-18T02:35:24.397Z,0.53
2022-12-18T02:38:47.662Z,0.57
2022-12-18T02:42:09.730Z,0.50
2022-12-18T02:45:33.750Z,0.43
2022-12-18T02:49:02.660Z,0.43
2022-12-18T02:52:45.659Z,0.46
2022-12-18T02:56:13.230Z,0.43
2022-12-18T02:59:55.213Z,0.54
2022-12-18T03:03:40.245Z,0.39
2022-12-18T03:07:06.167Z,0.33
2022-12-18T03:10:32.001Z,0.24
2022-12-18T03:13:58.232Z,0.36
2022-12-18T03:17:21.897Z,0.30
2022-12-18T03:20:45.508Z,0.28
2022-12-18T03:24:09.661Z,0.29
2022-12-18T03:27:34.060Z,0.45
2022-12-18T03:30:58.730Z,0.28
2022-12-18T03:34:32.461Z,0.12
2022-12-18T03:37:54.046Z,0.09
2022-12-18T03:41:23.948Z,0.19
2022-12-18T03:45:02.438Z,0.18
2022-12-18T03:48:42.847Z,-0.03
2022-12-18T03:52:18.063Z,-0.15
2022-12-18T03:55:40.398Z,-0.15
2022-12-18T03:59:03.679Z,-0.17
2022-12-18T04:02:26.326Z,-0.30
2022-12-18T04:05:51.416Z,-0.44
2022-12-18T04:09:13.420Z,-0.50
2022-12-18T04:12:34.943Z,-0.50
2022-12-18T04:15:56.671Z,-0.49
2022-12-18T04:19:20.940Z,-0.54
2022-12-18T04:22:44.629Z,-0.60
2022-12-18T04:26:08.968Z,-0.60
2022-12-18T04:29:30.587Z,-0.56
2022-12-18T04:32:52.546Z,-0.58
2022-12-18T04:36:16.631Z,-0.51
2022-12-18T04:39:40.875Z,-0.58
2022-12-18T04:43:02.583Z,-0.57
2022-12-18T04:46:24.214Z,-0.58
2022-12-18T04:49:45.838Z,-0.60
2022-12-18T04:53:09.858Z,-0.64
2022-12-18T04:56:33.102Z,-0.61
2022-12-18T04:59:56.903Z,-0.67
2022-12-18T05:03:18.464Z,-0.61
2022-12-18T05:06:42.739Z,-0.62
2022-12-18T05:10:07.826Z,-0.68
2022-12-18T05:13:29.684Z,-0.64
2022-12-18T05:17:00.688Z,-0.68
2022-12-18T05:20:22.913Z,-0.77
2022-12-18T05:23:44.658Z,-0.77
2022-12-18T05:27:06.272Z,-0.78
2022-12-18T05:30:28.620Z,-0.88
2022-12-18T05:33:50.204Z,-0.80
2022-12-18T05:37:11.758Z,-0.85
2022-12-18T05:40:33.348Z,-0.93
2022-12-18T05:43:54.896Z,-1.01
2022-12-18T05:47:16.420Z,-1.17
2022-12-18T05:50:39.153Z,-1.22
2022-12-18T05:54:03.059Z,-1.03
2022-12-18T05:57:25.274Z,-0.91
2022-12-18T06:00:47.404Z,-0.67
2022-12-18T06:04:09.062Z,-0.88
2022-12-18T06:07:30.762Z,-1.08
2022-12-18T06:10:56.284Z,-1.22
2022-12-18T06:14:18.256Z,-1.19
2022-12-18T06:17:42.324Z,-1.19
2022-12-18T06:21:04.037Z,-1.13
2022-12-18T06:24:25.627Z,-1.26
2022-12-18T06:27:48.710Z,-1.22
2022-12-18T06:31:11.208Z,-1.26
2022-12-18T06:34:33.473Z,-1.35
2022-12-18T06:37:55.070Z,-1.35
2022-12-18T06:41:21.389Z,-1.43
2022-12-18T06:44:42.961Z,-1.44
2022-12-18T06:48:07.342Z,-1.46
2022-12-18T06:51:29.041Z,-1.47
2022-12-18T06:54:53.318Z,-1.46
2022-12-18T06:58:15.033Z,-1.29
2022-12-18T07:01:36.890Z,-1.17
2022-12-18T07:04:58.552Z,-1.08
2022-12-18T07:08:20.195Z,-1.19
2022-12-18T07:11:43.986Z,-1.03
2022-12-18T07:15:06.125Z,-1.03
2022-12-18T07:18:27.688Z,-0.89
2022-12-18T07:21:52.277Z,-0.84
2022-12-18T07:25:13.852Z,-0.92
2022-12-18T07:28:36.551Z,-0.96
2022-12-18T07:31:58.221Z,-0.93
2022-12-18T07:35:24.734Z,-0.77
2022-12-18T07:38:50.780Z,-0.71
2022-12-18T07:42:31.303Z,-0.71
2022-12-18T07:45:52.997Z,-0.65
2022-12-18T07:49:14.557Z,-0.56
2022-12-18T07:52:36.370Z,-0.15
2022-12-18T07:56:25.445Z,0.66
2022-12-18T07:59:40.614Z,1.04
2022-12-18T08:03:02.841Z,1.24
2022-12-18T08:06:24.943Z,1.42
2022-12-18T08:09:48.752Z,1.52
2022-12-18T08:13:12.572Z,1.98
2022-12-18T08:16:37.269Z,2.42
2022-12-18T08:19:58.861Z,2.67
2022-12-18T08:23:20.740Z,2.93
2022-12-18T08:26:45.573Z,3.72
2022-12-18T08:30:16.773Z,4.17
2022-12-18T08:33:40.331Z,3.86
2022-12-18T08:37:05.377Z,4.21
2022-12-18T08:40:27.122Z,4.68
2022-12-18T08:44:07.274Z,5.79
2022-12-18T08:47:28.859Z,6.11
2022-12-18T08:51:00.537Z,6.47
2022-12-18T08:54:22.197Z,6.77
2022-12-18T08:57:52.610Z,7.24
2022-12-18T09:01:17.079Z,7.43
2022-12-18T09:04:38.898Z,7.06
2022-12-18T09:08:00.472Z,5.92
2022-12-18T09:11:25.337Z,5.75
2022-12-18T09:14:46.887Z,5.88
2022-12-18T09:18:08.454Z,6.75
2022-12-18T09:21:36.989Z,6.96
2022-12-18T09:25:01.506Z,6.85
2022-12-18T09:28:23.093Z,7.22
2022-12-18T09:31:44.656Z,6.05
2022-12-18T09:35:06.471Z,6.47
2022-12-18T09:38:30.093Z,4.22
2022-12-18T09:41:54.729Z,4.89
2022-12-18T09:45:19.750Z,4.71
2022-12-18T09:48:45.393Z,5.26
2022-12-18T09:52:30.971Z,5.88
2022-12-18T09:55:55.336Z,6.11
2022-12-18T09:59:28.394Z,6.77
2022-12-18T10:02:57.632Z,6.89
2022-12-18T10:07:09.142Z,8.03
2022-12-18T10:10:54.072Z,9.14
2022-12-18T10:14:18.187Z,10.05
2022-12-18T10:17:56.379Z,10.22
2022-12-18T10:21:23.068Z,10.41
2022-12-18T10:24:54.308Z,11.29
2022-12-18T10:28:20.374Z,11.83
2022-12-18T10:31:42.135Z,12.79
2022-12-18T10:35:05.976Z,11.10
2022-12-18T10:38:30.832Z,10.88
2022-12-18T10:41:52.941Z,11.94
2022-12-18T10:45:18.522Z,13.44
2022-12-18T10:48:42.254Z,12.80
2022-12-18T10:52:17.064Z,12.46
2022-12-18T10:55:40.852Z,11.84
2022-12-18T10:59:14.858Z,11.45
2022-12-18T11:02:39.774Z,9.84
2022-12-18T11:06:06.205Z,11.80
2022-12-18T11:09:34.987Z,12.66
2022-12-18T11:12:56.878Z,13.93
2022-12-18T11:16:21.739Z,14.67
2022-12-18T11:19:43.523Z,14.03
2022-12-18T11:23:15.212Z,14.65
2022-12-18T11:26:37.244Z,15.57
2022-12-18T11:30:23.282Z,13.55
2022-12-18T11:34:19.721Z,14.84
2022-12-18T11:37:33.923Z,15.22
2022-12-18T11:41:14.697Z,14.50
2022-12-18T11:44:54.918Z,15.30
2022-12-18T11:48:28.205Z,15.60
2022-12-18T11:52:15.198Z,16.29
2022-12-18T11:55:48.753Z,16.33
2022-12-18T11:59:26.904Z,15.37
2022-12-18T12:03:13.986Z,16.40
2022-12-18T12:07:12.962Z,16.34
2022-12-18T12:11:02.206Z,14.71
2022-12-18T12:14:39.519Z,15.47
2022-12-18T12:18:23.018Z,16.06
2022-12-18T12:21:54.759Z,15.71
2022-12-18T12:25:41.645Z,15.44
2022-12-18T12:29:45.140Z,14.87
2022-12-18T12:33:13.937Z,15.20
2022-12-18T12:36:38.480Z,14.02
2022-12-18T12:40:15.261Z,14.10
2022-12-18T12:43:51.024Z,14.98
2022-12-18T12:47:19.479Z,15.16
2022-12-18T12:50:42.179Z,14.82
2022-12-18T12:54:12.159Z,15.63
2022-12-18T12:57:43.898Z,16.01
2022-12-18T13:01:19.981Z,16.16
2022-12-18T13:05:01.424Z,16.12
2022-12-18T13:08:30.936Z,15.19
2022-12-18T13:12:22.207Z,14.40
2022-12-18T13:16:04.068Z,13.53
2022-12-18T13:19:30.378Z,12.45
2022-12-18T13:22:52.447Z,10.69
2022-12-18T13:26:28.619Z,9.73
2022-12-18T13:29:52.849Z,9.36
2022-12-18T13:33:14.345Z,8.51
2022-12-18T13:36:38.435Z,8.33
2022-12-18T13:40:00.081Z,8.10
2022-12-18T13:43:21.581Z,7.67
2022-12-18T13:46:51.576Z,7.72
2022-12-18T13:50:35.876Z,7.71
2022-12-18T13:54:01.670Z,7.33
2022-12-18T13:57:31.571Z,7.07
2022-12-18T14:00:55.713Z,6.91
2022-12-18T14:04:30.020Z,6.75
2022-12-18T14:07:55.597Z,6.42
2022-12-18T14:11:23.846Z,6.42
2022-12-18T14:14:51.579Z,6.17
2022-12-18T14:18:27.931Z,6.14
2022-12-18T14:21:53.673Z,6.00
2022-12-18T14:25:16.088Z,6.45
2022-12-18T14:28:45.179Z,6.98
2022-12-18T14:32:24.295Z,7.55
2022-12-18T14:36:01.631Z,7.46
2022-12-18T14:39:26.539Z,7.30
2022-12-18T14:42:49.001Z,6.89
2022-12-18T14:46:32.235Z,6.44
2022-12-18T14:49:53.818Z,6.02
2022-12-18T14:53:32.559Z,5.72
2022-12-18T14:57:22.070Z,5.54
2022-12-18T15:00:43.861Z,5.37
2022-12-18T15:04:25.814Z,5.22
2022-12-18T15:07:53.225Z,5.10
2022-12-18T15:11:34.843Z,4.69
2022-12-18T15:14:56.416Z,4.59
2022-12-18T15:18:25.585Z,4.54
2022-12-18T15:21:47.635Z,4.16
2022-12-18T15:25:31.596Z,4.07
2022-12-18T15:28:53.209Z,5.50
2022-12-18T15:32:20.948Z,5.82
2022-12-18T15:35:47.403Z,5.44
2022-12-18T15:39:14.176Z,5.34
2022-12-18T15:42:54.079Z,5.17
2022-12-18T15:46:17.119Z,4.97
2022-12-18T15:49:38.770Z,4.75
2022-12-18T15:53:00.413Z,4.34
2022-12-18T15:56:40.958Z,3.99
2022-12-18T16:00:02.586Z,3.70
2022-12-18T16:03:24.170Z,3.51
2022-12-18T16:07:13.434Z,3.65
2022-12-18T16:10:28.224Z,3.30
2022-12-18T16:13:52.468Z,3.13
2022-12-18T16:17:17.507Z,2.79
2022-12-18T16:20:39.571Z,2.80
2022-12-18T16:24:04.402Z,2.72
2022-12-18T16:27:28.397Z,2.84
2022-12-18T16:30:49.992Z,3.04
2022-12-18T16:34:18.840Z,3.28
2022-12-18T16:37:41.651Z,3.38
2022-12-18T16:41:30.209Z,3.51
2022-12-18T16:44:53.839Z,3.52
2022-12-18T16:48:17.713Z,3.46
2022-12-18T16:51:39.775Z,3.32
2022-12-18T16:55:01.365Z,3.38
2022-12-18T16:58:23.199Z,3.14
2022-12-18T17:01:44.807Z,2.87
2022-12-18T17:05:09.177Z,2.73
2022-12-18T17:08:33.715Z,2.76
2022-12-18T17:11:56.338Z,2.39
2022-12-18T17:15:23.137Z,1.88
2022-12-18T17:18:45.030Z,1.71
2022-12-18T17:22:08.169Z,1.62
2022-12-18T17:25:32.560Z,1.86
2022-12-18T17:28:57.456Z,1.87
2022-12-18T17:32:21.620Z,2.13
2022-12-18T17:35:43.131Z,2.25
2022-12-18T17:39:07.044Z,2.50
2022-12-18T17:42:28.602Z,2.59
2022-12-18T17:45:53.690Z,2.57
2022-12-18T17:49:16.410Z,2.49
2022-12-18T17:52:40.723Z,2.53
2022-12-18T17:56:05.609Z,2.24
2022-12-18T17:59:27.304Z,1.98
2022-12-18T18:02:49.148Z,1.79
2022-12-18T18:06:11.051Z,1.70
2022-12-18T18:09:33.930Z,1.27
2022-12-18T18:13:16.706Z,1.11
2022-12-18T18:16:45.466Z,1.24
2022-12-18T18:20:07.808Z,1.00
2022-12-18T18:23:34.107Z,1.09
2022-12-18T18:26:55.855Z,1.00
2022-12-18T18:30:17.444Z,1.07
2022-12-18T18:33:42.006Z,0.83
2022-12-18T18:37:03.928Z,0.64
2022-12-18T18:40:25.494Z,0.83
2022-12-18T18:43:54.654Z,1.14
2022-12-18T18:47:18.606Z,1.36
2022-12-18T18:50:40.189Z,1.52
2022-12-18T18:54:04.241Z,1.64
2022-12-18T18:57:30.462Z,1.70
2022-12-18T19:01:14.620Z,1.49
2022-12-18T19:04:45.793Z,1.12
2022-12-18T19:08:10.898Z,0.80
2022-12-18T19:11:51.234Z,0.77
2022-12-18T19:15:13.715Z,0.43
2022-12-18T19:18:37.925Z,0.39
2022-12-18T19:21:59.906Z,0.76
2022-12-18T19:25:40.492Z,1.08
2022-12-18T19:29:08.787Z,1.22
2022-12-18T19:32:31.446Z,1.38
2022-12-18T19:35:53.259Z,1.39
2022-12-18T19:39:17.253Z,1.31
2022-12-18T19:42:41.318Z,1.29
2022-12-18T19:46:07.225Z,1.28
2022-12-18T19:49:28.877Z,1.28
2022-12-18T19:52:51.184Z,1.20
2022-12-18T19:56:15.531Z,1.12
2022-12-18T19:59:42.032Z,1.24
2022-12-18T20:03:16.026Z,1.05
2022-12-18T20:06:51.710Z,0.70
2022-12-18T20:10:16.014Z,0.63
2022-12-18T20:13:40.375Z,0.66
2022-12-18T20:17:02.116Z,-0.02
2022-12-18T20:20:28.419Z,-0.10
2022-12-18T20:23:50.389Z,-0.09
2022-12-18T20:27:16.131Z,-0.41
2022-12-18T20:30:42.726Z,-0.23
2022-12-18T20:34:06.116Z,0.02
2022-12-18T20:37:28.730Z,0.25
2022-12-18T20:40:53.618Z,0.56
2022-12-18T20:44:21.586Z,0.94
2022-12-18T20:47:45.315Z,0.98
2022-12-18T20:51:12.105Z,1.00
2022-12-18T20:54:33.669Z,0.73
2022-12-18T20:57:58.169Z,0.54
2022-12-18T21:01:23.193Z,0.43
2022-12-18T21:04:44.867Z,-0.03
2022-12-18T21:08:06.598Z,-0.58
2022-12-18T21:11:49.221Z,-0.51
2022-12-18T21:15:13.370Z,-0.20
2022-12-18T21:18:37.297Z,-0.13
2022-12-18T21:21:59.019Z,-0.16
2022-12-18T21:25:20.687Z,-0.32
2022-12-18T21:28:45.162Z,-0.50
2022-12-18T21:32:09.590Z,-0.78
2022-12-18T21:35:32.148Z,-0.98
2022-12-18T21:38:54.471Z,-1.01
2022-12-18T21:42:35.355Z,-1.15
2022-12-18T21:45:56.961Z,-0.78
2022-12-18T21:49:24.360Z,-0.80
2022-12-18T21:52:45.898Z,-1.01
2022-12-18T21:56:07.532Z,-0.84
2022-12-18T21:59:40.248Z,-0.74
2022-12-18T22:03:17.338Z,-0.88
2022-12-18T22:06:41.630Z,-0.84
2022-12-18T22:10:03.435Z,-0.91
2022-12-18T22:13:24.997Z,-0.67
2022-12-18T22:16:49.593Z,-0.58
2022-12-18T22:20:14.599Z,-0.49
2022-12-18T22:23:36.120Z,-0.36
2022-12-18T22:27:02.134Z,-0.32
2022-12-18T22:30:24.130Z,-0.20
2022-12-18T22:33:45.835Z,-0.20
2022-12-18T22:37:10.486Z,-0.06
2022-12-18T22:40:32.099Z,-0.34
2022-12-18T22:43:55.727Z,-0.24
2022-12-18T22:47:17.335Z,-0.03
2022-12-18T22:50:41.558Z,-0.03
2022-12-18T22:54:03.203Z,-0.24
2022-12-18T22:57:27.537Z,-0.30
2022-12-18T23:00:49.060Z,-0.22
2022-12-18T23:04:10.996Z,-0.07
2022-12-18T23:07:32.516Z,-0.06
2022-12-18T23:10:54.062Z,-0.19
2022-12-18T23:14:15.816Z,-0.07
2022-12-18T23:17:39.692Z,-0.09
2022-12-18T23:21:21.994Z,-0.09
2022-12-18T23:24:44.533Z,-0.10
2022-12-18T23:28:06.389Z,0.02
2022-12-18T23:31:30.886Z,0.04
2022-12-18T23:34:52.710Z,-0.09
2022-12-18T23:38:16.894Z,-0.23
2022-12-18T23:41:40.931Z,-0.06
2022-12-18T23:45:05.235Z,-0.12
2022-12-18T23:48:42.229Z,-0.13
2022-12-18T23:52:03.775Z,-0.12
2022-12-18T23:55:25.305Z,-0.12
2022-12-18T23:58:47.261Z,-0.20
